createdAt,value
2022-10-22T00:00:39.249Z,6.13
2022-10-22T00:03:12.668Z,5.82
2022-10-22T00:05:45.714Z,7.90
2022-10-22T00:08:26.859Z,6.95
2022-10-22T00:11:25.873Z,7.20
2022-10-22T00:13:58.141Z,5.20
2022-10-22T00:16:25.019Z,10.43
2022-10-22T00:18:52.144Z,5.50
2022-10-22T00:24:58.164Z,5.00
2022-10-22T00:27:48.234Z,6.20
2022-10-22T00:30:29.796Z,9.35
2022-10-22T00:33:04.586Z,9.95
2022-10-22T00:35:57.447Z,5.63
2022-10-22T00:38:24.425Z,5.88
2022-10-22T00:40:59.130Z,10.45
2022-10-22T00:43:32.775Z,5.90
2022-10-22T00:46:12.876Z,7.30
2022-10-22T00:51:26.500Z,4.40
2022-10-22T00:54:12.676Z,6.65
2022-10-22T00:56:46.131Z,6.35
2022-10-22T00:59:15.749Z,8.35
2022-10-22T01:01:46.210Z,7.85
2022-10-22T01:04:13.849Z,4.40
2022-10-22T01:06:40.781Z,4.53
2022-10-22T01:09:25.257Z,5.47
2022-10-22T01:12:07.005Z,6.50
2022-10-22T01:14:45.798Z,6.55
2022-10-22T01:17:46.181Z,6.68
2022-10-22T01:20:50.048Z,4.78
2022-10-22T01:23:48.051Z,7.40
2022-10-22T01:26:48.958Z,4.93
2022-10-22T01:29:53.273Z,5.03
2022-10-22T01:32:25.435Z,6.10
2022-10-22T01:35:01.040Z,7.47
2022-10-22T01:37:32.015Z,4.85
2022-10-22T01:40:01.535Z,8.70
2022-10-22T01:42:28.626Z,11.90
2022-10-22T01:44:55.490Z,8.25
2022-10-22T01:47:47.595Z,9.27
2022-10-22T01:50:36.648Z,5.93
2022-10-22T01:53:11.951Z,9.75
2022-10-22T01:56:09.320Z,6.85
2022-10-22T01:59:07.330Z,5.63
2022-10-22T02:02:13.543Z,6.45
2022-10-22T02:04:49.716Z,6.93
2022-10-22T02:07:27.811Z,6.72
2022-10-22T02:09:59.942Z,10.50
2022-10-22T02:12:29.382Z,4.32
2022-10-22T02:15:00.231Z,8.68
2022-10-22T02:17:31.586Z,10.00
2022-10-22T02:20:07.818Z,5.82
2022-10-22T02:22:37.077Z,7.57
2022-10-22T02:25:13.942Z,6.70
2022-10-22T02:27:56.312Z,7.80
2022-10-22T02:30:23.518Z,7.47
2022-10-22T02:32:53.159Z,8.45
2022-10-22T02:35:23.184Z,5.50
2022-10-22T02:37:55.190Z,9.07
2022-10-22T02:40:29.068Z,7.18
2022-10-22T02:43:01.454Z,6.63
2022-10-22T02:45:38.258Z,4.15
2022-10-22T02:48:05.630Z,5.38
2022-10-22T02:50:32.436Z,6.15
2022-10-22T02:52:59.234Z,5.78
2022-10-22T02:55:41.233Z,5.90
2022-10-22T02:58:08.091Z,7.13
2022-10-22T03:00:35.053Z,8.88
2022-10-22T03:03:01.907Z,5.93
2022-10-22T03:05:29.219Z,5.28
2022-10-22T03:07:56.448Z,6.85
2022-10-22T03:10:24.616Z,8.00
2022-10-22T03:12:57.886Z,5.75
2022-10-22T03:15:24.983Z,5.03
2022-10-22T03:17:55.357Z,5.55
2022-10-22T03:20:24.797Z,13.55
2022-10-22T03:23:02.706Z,8.90
2022-10-22T03:25:35.581Z,8.93
2022-10-22T03:28:10.274Z,9.05
2022-10-22T03:30:40.991Z,7.15
2022-10-22T03:33:10.895Z,7.00
2022-10-22T03:35:45.113Z,9.15
2022-10-22T03:38:23.969Z,6.32
2022-10-22T03:40:51.164Z,7.88
2022-10-22T03:43:18.287Z,10.20
2022-10-22T03:45:51.189Z,11.65
2022-10-22T03:48:18.191Z,9.05
2022-10-22T03:50:45.204Z,12.27
2022-10-22T03:53:12.079Z,7.55
2022-10-22T03:55:41.729Z,12.35
2022-10-22T03:58:08.628Z,7.97
2022-10-22T04:00:40.803Z,10.50
2022-10-22T04:03:07.654Z,8.98
2022-10-22T04:05:37.074Z,12.93
2022-10-22T04:08:07.484Z,7.95
2022-10-22T04:10:37.227Z,10.15
2022-10-22T04:13:07.604Z,14.48
2022-10-22T04:15:37.031Z,10.20
2022-10-22T04:18:04.376Z,13.15
2022-10-22T04:20:42.720Z,11.70
2022-10-22T04:23:12.953Z,10.52
2022-10-22T04:25:40.231Z,13.00
2022-10-22T04:28:08.775Z,14.25
2022-10-22T04:30:36.947Z,11.03
2022-10-22T04:33:04.139Z,15.25
2022-10-22T04:35:31.041Z,12.23
2022-10-22T04:37:57.884Z,13.85
2022-10-22T04:40:24.767Z,10.65
2022-10-22T04:42:51.651Z,11.45
2022-10-22T04:45:18.576Z,11.98
2022-10-22T04:47:45.410Z,12.20
2022-10-22T04:50:12.902Z,10.05
2022-10-22T04:52:39.798Z,13.48
2022-10-22T04:55:07.055Z,10.73
2022-10-22T04:57:44.862Z,10.90
2022-10-22T05:00:12.306Z,15.55
2022-10-22T05:02:39.221Z,14.02
2022-10-22T05:05:06.289Z,13.77
2022-10-22T05:07:33.551Z,13.77
2022-10-22T05:10:02.358Z,14.13
2022-10-22T05:12:30.940Z,14.52
2022-10-22T05:14:57.831Z,12.75
2022-10-22T05:17:24.699Z,11.38
2022-10-22T05:19:51.817Z,13.98
2022-10-22T05:22:18.938Z,16.35
2022-10-22T05:24:49.354Z,13.05
2022-10-22T05:27:16.087Z,13.88
2022-10-22T05:29:43.283Z,14.25
2022-10-22T05:32:14.665Z,13.55
2022-10-22T05:34:41.541Z,12.32
2022-10-22T05:37:08.275Z,15.95
2022-10-22T05:39:45.655Z,12.73
2022-10-22T05:42:27.192Z,16.17
2022-10-22T05:44:53.993Z,12.02
2022-10-22T05:47:23.623Z,12.23
2022-10-22T05:49:53.666Z,8.98
2022-10-22T05:52:20.538Z,13.10
2022-10-22T05:54:47.436Z,12.43
2022-10-22T05:57:14.305Z,11.63
2022-10-22T05:59:59.529Z,13.35
2022-10-22T06:06:16.228Z,9.40
2022-10-22T06:08:50.181Z,9.07
2022-10-22T06:11:22.188Z,12.57
2022-10-22T06:13:50.560Z,11.98
2022-10-22T06:16:23.159Z,10.48
2022-10-22T06:18:50.109Z,8.75
2022-10-22T06:21:16.834Z,12.02
2022-10-22T06:23:44.289Z,11.93
2022-10-22T06:26:11.595Z,11.60
2022-10-22T06:28:38.889Z,12.98
2022-10-22T06:31:09.827Z,15.43
2022-10-22T06:33:44.981Z,16.20
2022-10-22T06:38:53.838Z,16.03
2022-10-22T06:41:24.272Z,14.90
2022-10-22T06:43:55.862Z,13.57
2022-10-22T06:46:23.723Z,15.43
2022-10-22T06:48:53.187Z,18.50
2022-10-22T06:51:21.315Z,16.40
2022-10-22T06:53:48.778Z,14.50
2022-10-22T06:56:18.541Z,12.70
2022-10-22T06:58:48.628Z,11.20
2022-10-22T07:01:17.819Z,14.05
2022-10-22T07:03:44.755Z,11.77
2022-10-22T07:06:14.579Z,11.82
2022-10-22T07:08:42.336Z,11.90
2022-10-22T07:11:24.016Z,13.40
2022-10-22T07:13:51.354Z,11.10
2022-10-22T07:16:19.063Z,13.32
2022-10-22T07:18:46.528Z,9.45
2022-10-22T07:21:15.554Z,9.55
2022-10-22T07:23:42.565Z,10.02
2022-10-22T07:26:11.306Z,7.60
2022-10-22T07:28:39.904Z,12.02
2022-10-22T07:31:09.172Z,7.28
2022-10-22T07:33:36.575Z,4.85
2022-10-22T07:36:06.303Z,6.85
2022-10-22T07:38:33.311Z,11.18
2022-10-22T07:41:00.445Z,6.32
2022-10-22T07:43:27.266Z,7.97
2022-10-22T07:45:55.937Z,6.80
2022-10-22T07:48:23.594Z,6.85
2022-10-22T07:50:52.032Z,9.68
2022-10-22T07:53:19.050Z,5.32
2022-10-22T07:55:49.841Z,6.20
2022-10-22T07:58:18.331Z,7.80
2022-10-22T08:01:02.218Z,6.72
2022-10-22T08:03:29.831Z,7.68
2022-10-22T08:05:57.368Z,9.93
2022-10-22T08:08:27.192Z,5.00
2022-10-22T08:10:59.529Z,5.43
2022-10-22T08:13:27.792Z,5.55
2022-10-22T08:15:57.508Z,6.25
2022-10-22T08:18:24.992Z,8.07
2022-10-22T08:20:54.530Z,5.95
2022-10-22T08:23:25.903Z,7.72
2022-10-22T08:25:53.646Z,7.63
2022-10-22T08:28:22.111Z,6.47
2022-10-22T08:30:49.861Z,8.50
2022-10-22T08:33:16.814Z,7.07
2022-10-22T08:35:51.406Z,8.93
2022-10-22T08:38:19.608Z,5.38
2022-10-22T08:40:53.883Z,5.53
2022-10-22T08:43:29.473Z,10.13
2022-10-22T08:46:16.351Z,8.02
2022-10-22T08:48:58.591Z,6.38
2022-10-22T08:51:29.869Z,6.95
2022-10-22T08:54:17.893Z,6.07
2022-10-22T08:56:50.662Z,8.13
2022-10-22T08:59:24.980Z,8.73
2022-10-22T09:01:54.036Z,12.33
2022-10-22T09:04:33.691Z,11.52
2022-10-22T09:07:01.164Z,7.88
2022-10-22T09:09:36.435Z,6.80
2022-10-22T09:12:07.334Z,10.77
2022-10-22T09:14:34.190Z,6.72
2022-10-22T09:17:19.536Z,8.25
2022-10-22T09:19:49.374Z,8.07
2022-10-22T09:22:25.110Z,6.47
2022-10-22T09:25:23.192Z,7.55
2022-10-22T09:27:52.565Z,5.45
2022-10-22T09:30:23.465Z,7.05
2022-10-22T09:33:02.034Z,7.80
2022-10-22T09:35:33.341Z,9.07
2022-10-22T09:38:08.432Z,9.07
2022-10-22T09:43:13.300Z,9.23
2022-10-22T09:45:40.732Z,8.70
2022-10-22T09:48:28.408Z,7.13
2022-10-22T09:51:13.421Z,14.45
2022-10-22T09:53:45.701Z,7.80
2022-10-22T09:56:35.435Z,6.90
2022-10-22T09:59:02.901Z,8.38
2022-10-22T10:01:37.136Z,9.20
2022-10-22T10:04:09.579Z,7.93
2022-10-22T10:06:42.051Z,11.60
2022-10-22T10:09:21.438Z,10.50
2022-10-22T10:12:20.289Z,10.30
2022-10-22T10:15:02.140Z,12.63
2022-10-22T10:17:57.436Z,10.57
2022-10-22T10:20:33.996Z,13.63
2022-10-22T10:23:30.937Z,9.52
2022-10-22T10:26:20.586Z,13.70
2022-10-22T10:29:25.630Z,9.00
2022-10-22T10:32:01.483Z,9.13
2022-10-22T10:34:40.378Z,9.35
2022-10-22T10:37:17.546Z,10.82
2022-10-22T10:40:13.342Z,10.13
2022-10-22T10:42:55.750Z,10.02
2022-10-22T10:45:37.381Z,7.47
2022-10-22T10:48:16.489Z,11.60
2022-10-22T10:50:55.582Z,13.45
2022-10-22T10:53:41.659Z,9.98
2022-10-22T10:56:27.331Z,7.30
2022-10-22T10:59:28.376Z,10.55
2022-10-22T11:02:16.996Z,9.95
2022-10-22T11:04:46.868Z,13.95
2022-10-22T11:07:30.254Z,10.43
2022-10-22T11:10:19.601Z,6.70
2022-10-22T11:15:35.685Z,9.38
2022-10-22T11:18:18.064Z,10.30
2022-10-22T11:21:09.938Z,8.27
2022-10-22T11:23:40.316Z,11.68
2022-10-22T11:26:15.282Z,7.10
2022-10-22T11:28:47.887Z,8.10
2022-10-22T11:31:17.006Z,8.45
2022-10-22T11:34:04.684Z,9.60
2022-10-22T11:36:38.127Z,6.32
2022-10-22T11:39:05.501Z,13.57
2022-10-22T11:41:34.279Z,7.72
2022-10-22T11:44:25.830Z,6.80
2022-10-22T11:46:59.461Z,5.53
2022-10-22T11:49:44.836Z,10.85
2022-10-22T11:52:55.307Z,9.70
2022-10-22T11:55:51.982Z,8.25
2022-10-22T11:58:30.555Z,8.38
2022-10-22T12:01:28.495Z,6.28
2022-10-22T12:03:58.317Z,10.20
2022-10-22T12:06:26.902Z,10.50
2022-10-22T12:08:54.360Z,10.65
2022-10-22T12:11:36.439Z,8.57
2022-10-22T12:14:30.023Z,7.68
2022-10-22T12:16:58.305Z,6.53
2022-10-22T12:19:49.516Z,7.35
2022-10-22T12:22:35.211Z,7.70
2022-10-22T12:25:22.924Z,7.35
2022-10-22T12:27:57.402Z,8.90
2022-10-22T12:30:34.724Z,8.88
2022-10-22T12:33:04.500Z,6.45
2022-10-22T12:35:42.869Z,10.68
2022-10-22T12:38:20.166Z,9.02
2022-10-22T12:40:48.961Z,11.73
2022-10-22T12:43:29.555Z,9.88
2022-10-22T12:46:00.286Z,8.43
2022-10-22T12:48:40.460Z,11.63
2022-10-22T12:51:09.820Z,7.63
2022-10-22T12:53:48.054Z,10.98
2022-10-22T12:56:20.920Z,8.35
2022-10-22T12:58:59.569Z,6.97
2022-10-22T13:01:36.187Z,4.78
2022-10-22T13:04:36.434Z,6.90
2022-10-22T13:07:12.462Z,7.47
2022-10-22T13:09:45.235Z,8.98
2022-10-22T13:12:16.784Z,6.13
2022-10-22T13:14:45.936Z,9.38
2022-10-22T13:17:17.404Z,9.13
2022-10-22T13:19:47.410Z,9.55
2022-10-22T13:22:33.888Z,6.15
2022-10-22T13:25:22.615Z,8.55
2022-10-22T13:27:57.519Z,7.00
2022-10-22T13:30:26.024Z,11.20
2022-10-22T13:32:57.526Z,11.48
2022-10-22T13:35:27.698Z,10.40
2022-10-22T13:37:54.504Z,7.40
2022-10-22T13:40:21.882Z,9.02
2022-10-22T13:42:48.713Z,7.15
2022-10-22T13:45:16.121Z,11.23
2022-10-22T13:47:48.498Z,6.75
2022-10-22T13:50:23.867Z,11.00
2022-10-22T13:52:53.376Z,9.23
2022-10-22T13:55:25.566Z,7.05
2022-10-22T13:58:14.430Z,11.73
2022-10-22T14:00:44.399Z,5.93
2022-10-22T14:03:14.449Z,10.32
2022-10-22T14:05:41.747Z,9.48
2022-10-22T14:08:19.352Z,5.63
2022-10-22T14:10:46.804Z,7.50
2022-10-22T14:13:15.509Z,6.70
2022-10-22T14:15:43.594Z,8.32
2022-10-22T14:18:15.868Z,8.23
2022-10-22T14:20:43.339Z,7.60
2022-10-22T14:23:20.234Z,7.28
2022-10-22T14:25:47.933Z,5.10
2022-10-22T14:28:14.958Z,8.90
2022-10-22T14:30:41.988Z,5.50
2022-10-22T14:33:16.351Z,5.70
2022-10-22T14:35:43.569Z,6.90
2022-10-22T14:38:10.669Z,7.50
2022-10-22T14:40:41.884Z,7.18
2022-10-22T14:43:29.043Z,13.30
2022-10-22T14:45:56.034Z,5.95
2022-10-22T14:48:23.328Z,8.43
2022-10-22T14:50:50.356Z,6.88
2022-10-22T14:53:17.449Z,6.35
2022-10-22T14:55:47.137Z,6.78
2022-10-22T14:58:14.425Z,7.20
2022-10-22T15:00:42.755Z,6.38
2022-10-22T15:03:10.251Z,7.00
2022-10-22T15:05:43.397Z,9.30
2022-10-22T15:08:11.329Z,7.00
2022-10-22T15:10:38.351Z,8.00
2022-10-22T15:13:05.244Z,13.02
2022-10-22T15:15:36.639Z,5.82
2022-10-22T15:18:06.223Z,4.90
2022-10-22T15:20:33.049Z,9.43
2022-10-22T15:23:00.516Z,10.63
2022-10-22T15:25:28.798Z,16.13
2022-10-22T15:27:59.657Z,9.18
2022-10-22T15:30:31.622Z,12.00
2022-10-22T15:32:58.660Z,9.50
2022-10-22T15:35:28.539Z,7.32
2022-10-22T15:37:55.785Z,10.20
2022-10-22T15:40:22.669Z,7.85
2022-10-22T15:42:49.559Z,10.07
2022-10-22T15:45:21.366Z,14.85
2022-10-22T15:47:49.156Z,11.23
2022-10-22T15:50:16.743Z,14.85
2022-10-22T15:52:43.595Z,11.80
2022-10-22T15:55:10.706Z,23.80
2022-10-22T15:57:39.304Z,10.90
2022-10-22T16:00:08.059Z,11.00
2022-10-22T16:02:34.906Z,12.80
2022-10-22T16:05:01.891Z,19.27
2022-10-22T16:07:29.769Z,9.82
2022-10-22T16:09:58.221Z,8.63
2022-10-22T16:12:25.064Z,10.00
2022-10-22T16:14:52.517Z,7.15
2022-10-22T16:17:19.557Z,10.45
2022-10-22T16:19:48.253Z,11.60
2022-10-22T16:22:15.924Z,10.68
2022-10-22T16:24:42.947Z,9.38
2022-10-22T16:27:10.350Z,8.18
2022-10-22T16:29:39.068Z,12.50
2022-10-22T16:32:06.186Z,10.98
2022-10-22T16:34:33.028Z,9.35
2022-10-22T16:36:59.939Z,10.30
2022-10-22T16:39:26.860Z,8.88
2022-10-22T16:41:53.737Z,10.85
2022-10-22T16:44:20.923Z,16.33
2022-10-22T16:46:47.969Z,10.13
2022-10-22T16:49:15.016Z,11.93
2022-10-22T16:51:42.023Z,12.80
2022-10-22T16:54:13.303Z,12.35
2022-10-22T16:56:48.444Z,11.07
2022-10-22T17:01:42.867Z,13.57
2022-10-22T17:04:11.503Z,11.90
2022-10-22T17:06:39.125Z,9.50
2022-10-22T17:09:06.380Z,11.73
2022-10-22T17:11:36.458Z,11.52
2022-10-22T17:14:05.479Z,14.25
2022-10-22T17:16:32.647Z,13.63
2022-10-22T17:18:59.659Z,11.23
2022-10-22T17:21:26.640Z,14.02
2022-10-22T17:23:58.074Z,13.40
2022-10-22T17:26:30.740Z,10.30
2022-10-22T17:28:58.343Z,12.05
2022-10-22T17:31:28.339Z,13.10
2022-10-22T17:33:56.850Z,13.95
2022-10-22T17:36:24.975Z,9.85
2022-10-22T17:38:56.945Z,13.35
2022-10-22T17:41:26.199Z,13.02
2022-10-22T17:43:53.374Z,19.63
2022-10-22T17:46:23.250Z,14.13
2022-10-22T17:49:04.658Z,12.15
2022-10-22T17:51:32.112Z,12.02
2022-10-22T17:53:59.357Z,9.80
2022-10-22T17:56:29.888Z,10.82
2022-10-22T17:58:57.660Z,11.95
2022-10-22T18:01:31.087Z,9.50
2022-10-22T18:04:04.133Z,9.90
2022-10-22T18:06:31.598Z,11.18
2022-10-22T18:08:58.795Z,9.27
2022-10-22T18:11:28.027Z,11.15
2022-10-22T18:13:56.945Z,13.93
2022-10-22T18:16:24.946Z,11.80
2022-10-22T18:18:54.375Z,10.70
2022-10-22T18:21:23.205Z,12.70
2022-10-22T18:23:50.456Z,11.48
2022-10-22T18:26:21.394Z,10.68
2022-10-22T18:28:51.555Z,11.57
2022-10-22T18:31:21.854Z,9.68
2022-10-22T18:33:49.328Z,13.68
2022-10-22T18:36:20.305Z,7.93
2022-10-22T18:38:51.308Z,13.68
2022-10-22T18:41:18.876Z,12.98
2022-10-22T18:43:52.789Z,13.10
2022-10-22T18:46:20.350Z,13.60
2022-10-22T18:49:01.564Z,12.68
2022-10-22T18:51:45.056Z,10.50
2022-10-22T18:54:22.714Z,13.43
2022-10-22T18:56:50.788Z,11.73
2022-10-22T18:59:22.266Z,10.85
2022-10-22T19:01:49.423Z,9.68
2022-10-22T19:04:16.518Z,11.00
2022-10-22T19:06:45.704Z,14.95
2022-10-22T19:09:14.900Z,17.73
2022-10-22T19:11:44.282Z,11.35
2022-10-22T19:14:11.377Z,10.73
2022-10-22T19:16:38.930Z,13.68
2022-10-22T19:19:08.189Z,11.23
2022-10-22T19:21:35.486Z,15.38
2022-10-22T19:24:03.158Z,16.50
2022-10-22T19:26:31.185Z,15.43
2022-10-22T19:29:01.579Z,11.95
2022-10-22T19:31:30.207Z,8.60
2022-10-22T19:33:58.935Z,12.20
2022-10-22T19:36:27.696Z,17.05
2022-10-22T19:38:57.159Z,8.93
2022-10-22T19:41:26.855Z,9.00
2022-10-22T19:43:55.459Z,9.82
2022-10-22T19:46:23.281Z,9.55
2022-10-22T19:48:51.611Z,10.20
2022-10-22T19:51:24.755Z,8.85
2022-10-22T19:53:57.243Z,8.65
2022-10-22T19:56:25.597Z,9.30
2022-10-22T19:58:53.241Z,12.68
2022-10-22T20:01:21.032Z,12.45
2022-10-22T20:03:48.118Z,13.25
2022-10-22T20:06:17.446Z,14.20
2022-10-22T20:08:45.095Z,10.85
2022-10-22T20:11:18.360Z,7.90
2022-10-22T20:13:48.151Z,13.27
2022-10-22T20:16:20.746Z,10.88
2022-10-22T20:18:47.599Z,11.55
2022-10-22T20:21:19.044Z,15.70
2022-10-22T20:23:47.464Z,17.55
2022-10-22T20:26:14.675Z,13.43
2022-10-22T20:28:41.800Z,19.23
2022-10-22T20:31:13.645Z,13.38
2022-10-22T20:33:40.679Z,12.82
2022-10-22T20:36:16.125Z,11.70
2022-10-22T20:38:43.550Z,13.20
2022-10-22T20:41:15.987Z,9.98
2022-10-22T20:43:47.733Z,12.32
2022-10-22T20:46:19.090Z,12.32
2022-10-22T20:48:46.351Z,10.75
2022-10-22T20:51:13.590Z,13.98
2022-10-22T20:53:40.970Z,13.35
2022-10-22T20:56:08.351Z,15.77
2022-10-22T20:58:36.336Z,17.13
2022-10-22T21:01:10.022Z,13.07
2022-10-22T21:03:38.032Z,17.45
2022-10-22T21:06:05.837Z,24.95
2022-10-22T21:08:33.051Z,23.95
2022-10-22T21:11:00.189Z,24.88
2022-10-22T21:13:27.064Z,19.17
2022-10-22T21:15:53.984Z,19.08
2022-10-22T21:18:20.935Z,25.83
2022-10-22T21:20:47.951Z,27.42
2022-10-22T21:23:14.795Z,25.65
2022-10-22T21:25:43.354Z,18.90
2022-10-22T21:28:11.352Z,16.38
2022-10-22T21:30:45.671Z,15.45
2022-10-22T21:33:12.931Z,11.57
2022-10-22T21:35:39.805Z,17.35
2022-10-22T21:38:08.009Z,14.57
2022-10-22T21:40:37.959Z,14.85
2022-10-22T21:43:04.765Z,13.80
2022-10-22T21:45:31.685Z,13.40
2022-10-22T21:48:00.413Z,13.30
2022-10-22T21:50:27.192Z,18.63
2022-10-22T21:52:54.036Z,15.20
2022-10-22T21:55:20.820Z,11.38
2022-10-22T21:57:47.681Z,14.63
2022-10-22T22:00:16.005Z,9.77
2022-10-22T22:02:43.336Z,19.27
2022-10-22T22:05:52.163Z,20.23
2022-10-22T22:08:32.244Z,18.83
2022-10-22T22:11:09.427Z,23.27
2022-10-22T22:13:36.569Z,15.13
2022-10-22T22:16:09.756Z,19.40
2022-10-22T22:18:37.197Z,13.73
2022-10-22T22:21:12.691Z,13.25
2022-10-22T22:23:41.796Z,15.18
2022-10-22T22:26:09.217Z,18.08
2022-10-22T22:28:36.622Z,10.82
2022-10-22T22:31:15.811Z,15.18
2022-10-22T22:33:42.589Z,17.90
2022-10-22T22:36:10.156Z,14.88
2022-10-22T22:38:37.576Z,10.25
2022-10-22T22:41:04.632Z,18.83
2022-10-22T22:43:31.564Z,13.00
2022-10-22T22:46:04.032Z,20.80
2022-10-22T22:48:31.688Z,16.73
2022-10-22T22:51:01.522Z,8.05
2022-10-22T22:53:29.137Z,10.57
2022-10-22T22:56:06.049Z,12.18
2022-10-22T22:58:33.160Z,12.68
2022-10-22T23:01:36.852Z,9.35
2022-10-22T23:04:06.805Z,7.15
2022-10-22T23:06:38.758Z,11.77
2022-10-22T23:09:08.332Z,6.15
2022-10-22T23:11:35.897Z,8.00
2022-10-22T23:14:05.445Z,8.65
2022-10-22T23:16:36.610Z,9.00
2022-10-22T23:19:04.980Z,6.85
2022-10-22T23:21:34.939Z,7.82
2022-10-22T23:24:04.965Z,9.90
2022-10-22T23:26:34.620Z,8.13
2022-10-22T23:29:03.229Z,7.63
2022-10-22T23:31:30.025Z,7.15
2022-10-22T23:33:56.782Z,6.65
2022-10-22T23:36:23.461Z,6.22
2022-10-22T23:38:50.403Z,7.80
2022-10-22T23:41:17.630Z,6.07
2022-10-22T23:43:44.587Z,8.38
2022-10-22T23:46:12.850Z,9.57
2022-10-22T23:48:40.440Z,8.85
2022-10-22T23:51:12.704Z,15.05
2022-10-22T23:53:41.158Z,7.30
2022-10-22T23:56:15.344Z,6.78
2022-10-22T23:58:42.813Z,7.75
